sensor_id;sensor_type;location;lat;lon;timestamp;temperature;humidity
39899;DHT22;25571;47.876;10.642;2023-04-08T00:01:01;7.40;99.90
39899;DHT22;25571;47.876;10.642;2023-04-08T00:03:27;7.20;99.90
39899;DHT22;25571;47.876;10.642;2023-04-08T00:05:52;7.30;99.90
39899;DHT22;25571;47.876;10.642;2023-04-08T00:08:18;7.40;99.90
39899;DHT22;25571;47.876;10.642;2023-04-08T00:10:44;7.30;99.90
39899;DHT22;25571;47.876;10.642;2023-04-08T00:13:09;7.30;99.90
39899;DHT22;25571;47.876;10.642;2023-04-08T00:15:36;7.30;99.90
39899;DHT22;25571;47.876;10.642;2023-04-08T00:18:01;7.30;99.90
39899;DHT22;25571;47.876;10.642;2023-04-08T00:20:27;7.20;99.90
39899;DHT22;25571;47.876;10.642;2023-04-08T00:22:53;7.30;99.90
39899;DHT22;25571;47.876;10.642;2023-04-08T00:25:19;7.30;99.90
39899;DHT22;25571;47.876;10.642;2023-04-08T00:27:44;7.20;99.90
39899;DHT22;25571;47.876;10.642;2023-04-08T00:30:10;7.30;99.90
39899;DHT22;25571;47.876;10.642;2023-04-08T00:32:36;7.30;99.90
39899;DHT22;25571;47.876;10.642;2023-04-08T00:35:02;7.50;99.90
39899;DHT22;25571;47.876;10.642;2023-04-08T00:37:28;7.40;99.90
39899;DHT22;25571;47.876;10.642;2023-04-08T00:39:54;7.30;99.90
39899;DHT22;25571;47.876;10.642;2023-04-08T00:42:19;7.30;99.90
39899;DHT22;25571;47.876;10.642;2023-04-08T00:44:46;7.30;99.90
39899;DHT22;25571;47.876;10.642;2023-04-08T00:47:13;7.20;99.90
39899;DHT22;25571;47.876;10.642;2023-04-08T00:49:38;7.10;99.90
39899;DHT22;25571;47.876;10.642;2023-04-08T00:52:05;7.10;99.90
39899;DHT22;25571;47.876;10.642;2023-04-08T00:54:30;7.10;99.90
39899;DHT22;25571;47.876;10.642;2023-04-08T00:56:56;7.00;99.90
39899;DHT22;25571;47.876;10.642;2023-04-08T00:59:24;7.00;99.90
39899;DHT22;25571;47.876;10.642;2023-04-08T01:02:03;7.10;99.90
39899;DHT22;25571;47.876;10.642;2023-04-08T01:04:51;7.00;99.90
39899;DHT22;25571;47.876;10.642;2023-04-08T01:07:30;7.00;99.90
39899;DHT22;25571;47.876;10.642;2023-04-08T01:10:01;7.00;99.90
39899;DHT22;25571;47.876;10.642;2023-04-08T01:12:31;7.10;99.90
39899;DHT22;25571;47.876;10.642;2023-04-08T01:15:04;7.00;99.90
39899;DHT22;25571;47.876;10.642;2023-04-08T01:17:31;7.00;99.90
39899;DHT22;25571;47.876;10.642;2023-04-08T01:19:59;7.00;99.90
39899;DHT22;25571;47.876;10.642;2023-04-08T01:25:36;7.00;99.90
39899;DHT22;25571;47.876;10.642;2023-04-08T01:28:05;7.00;99.90
39899;DHT22;25571;47.876;10.642;2023-04-08T01:30:33;7.00;99.90
39899;DHT22;25571;47.876;10.642;2023-04-08T01:33:01;7.00;99.90
39899;DHT22;25571;47.876;10.642;2023-04-08T01:35:30;7.10;99.90
39899;DHT22;25571;47.876;10.642;2023-04-08T01:37:56;7.20;99.90
39899;DHT22;25571;47.876;10.642;2023-04-08T01:40:22;7.20;99.90
39899;DHT22;25571;47.876;10.642;2023-04-08T01:42:49;7.20;99.90
39899;DHT22;25571;47.876;10.642;2023-04-08T01:45:17;7.30;99.90
39899;DHT22;25571;47.876;10.642;2023-04-08T01:47:44;7.20;99.90
39899;DHT22;25571;47.876;10.642;2023-04-08T01:50:12;7.00;99.90
39899;DHT22;25571;47.876;10.642;2023-04-08T01:52:39;6.80;99.90
39899;DHT22;25571;47.876;10.642;2023-04-08T01:55:06;6.80;99.90
39899;DHT22;25571;47.876;10.642;2023-04-08T01:57:34;6.70;99.90
39899;DHT22;25571;47.876;10.642;2023-04-08T02:00:09;6.60;99.90
39899;DHT22;25571;47.876;10.642;2023-04-08T02:02:37;6.70;99.90
39899;DHT22;25571;47.876;10.642;2023-04-08T02:05:05;6.60;99.90
39899;DHT22;25571;47.876;10.642;2023-04-08T02:07:31;6.70;99.90
39899;DHT22;25571;47.876;10.642;2023-04-08T02:09:56;6.70;99.90
39899;DHT22;25571;47.876;10.642;2023-04-08T02:12:23;6.70;99.90
39899;DHT22;25571;47.876;10.642;2023-04-08T02:14:49;6.70;99.90
39899;DHT22;25571;47.876;10.642;2023-04-08T02:17:30;6.70;99.90
39899;DHT22;25571;47.876;10.642;2023-04-08T02:20:18;6.70;99.90
39899;DHT22;25571;47.876;10.642;2023-04-08T02:22:53;6.60;99.90
39899;DHT22;25571;47.876;10.642;2023-04-08T02:25:23;6.60;99.90
39899;DHT22;25571;47.876;10.642;2023-04-08T02:27:51;6.70;99.90
39899;DHT22;25571;47.876;10.642;2023-04-08T02:30:17;6.60;99.90
39899;DHT22;25571;47.876;10.642;2023-04-08T02:32:45;6.50;99.90
39899;DHT22;25571;47.876;10.642;2023-04-08T02:35:12;6.60;99.90
39899;DHT22;25571;47.876;10.642;2023-04-08T02:37:39;6.50;99.90
39899;DHT22;25571;47.876;10.642;2023-04-08T02:40:22;6.40;99.90
39899;DHT22;25571;47.876;10.642;2023-04-08T02:42:49;6.30;99.90
39899;DHT22;25571;47.876;10.642;2023-04-08T02:45:14;6.40;99.90
39899;DHT22;25571;47.876;10.642;2023-04-08T02:47:40;6.50;99.90
39899;DHT22;25571;47.876;10.642;2023-04-08T02:50:06;6.50;99.90
39899;DHT22;25571;47.876;10.642;2023-04-08T02:52:31;6.50;99.90
39899;DHT22;25571;47.876;10.642;2023-04-08T02:54:57;6.50;99.90
39899;DHT22;25571;47.876;10.642;2023-04-08T02:57:22;6.50;99.90
39899;DHT22;25571;47.876;10.642;2023-04-08T02:59:48;6.60;99.90
39899;DHT22;25571;47.876;10.642;2023-04-08T03:02:14;6.60;99.90
39899;DHT22;25571;47.876;10.642;2023-04-08T03:04:39;6.60;99.90
39899;DHT22;25571;47.876;10.642;2023-04-08T03:07:05;6.70;99.90
39899;DHT22;25571;47.876;10.642;2023-04-08T03:09:30;6.60;99.90
39899;DHT22;25571;47.876;10.642;2023-04-08T03:11:56;6.60;99.90
39899;DHT22;25571;47.876;10.642;2023-04-08T03:14:21;6.60;99.90
39899;DHT22;25571;47.876;10.642;2023-04-08T03:16:47;6.80;99.90
39899;DHT22;25571;47.876;10.642;2023-04-08T03:19:13;6.60;99.90
39899;DHT22;25571;47.876;10.642;2023-04-08T03:21:38;6.60;99.90
39899;DHT22;25571;47.876;10.642;2023-04-08T03:24:04;6.70;99.90
39899;DHT22;25571;47.876;10.642;2023-04-08T03:26:30;6.70;99.90
39899;DHT22;25571;47.876;10.642;2023-04-08T03:28:55;6.70;99.90
39899;DHT22;25571;47.876;10.642;2023-04-08T03:31:21;6.70;99.90
39899;DHT22;25571;47.876;10.642;2023-04-08T03:33:47;6.80;99.90
39899;DHT22;25571;47.876;10.642;2023-04-08T03:36:12;6.70;99.90
39899;DHT22;25571;47.876;10.642;2023-04-08T03:38:38;6.70;99.90
39899;DHT22;25571;47.876;10.642;2023-04-08T03:41:03;6.60;99.90
39899;DHT22;25571;47.876;10.642;2023-04-08T03:43:29;6.70;99.90
39899;DHT22;25571;47.876;10.642;2023-04-08T03:45:55;6.70;99.90
39899;DHT22;25571;47.876;10.642;2023-04-08T03:48:22;6.80;99.90
39899;DHT22;25571;47.876;10.642;2023-04-08T03:50:47;6.80;99.90
39899;DHT22;25571;47.876;10.642;2023-04-08T03:53:13;6.90;99.90
39899;DHT22;25571;47.876;10.642;2023-04-08T03:55:38;6.90;99.90
39899;DHT22;25571;47.876;10.642;2023-04-08T03:58:04;6.70;99.90
39899;DHT22;25571;47.876;10.642;2023-04-08T04:00:30;6.70;99.90
39899;DHT22;25571;47.876;10.642;2023-04-08T04:02:56;6.80;99.90
39899;DHT22;25571;47.876;10.642;2023-04-08T04:05:21;6.80;99.90
39899;DHT22;25571;47.876;10.642;2023-04-08T04:07:47;6.90;99.90
39899;DHT22;25571;47.876;10.642;2023-04-08T04:10:12;6.70;99.90
39899;DHT22;25571;47.876;10.642;2023-04-08T04:12:38;6.70;99.90
39899;DHT22;25571;47.876;10.642;2023-04-08T04:15:04;6.90;99.90
39899;DHT22;25571;47.876;10.642;2023-04-08T04:17:30;6.70;99.90
39899;DHT22;25571;47.876;10.642;2023-04-08T04:19:55;6.70;99.90
39899;DHT22;25571;47.876;10.642;2023-04-08T04:22:21;6.70;99.90
39899;DHT22;25571;47.876;10.642;2023-04-08T04:24:48;6.80;99.90
39899;DHT22;25571;47.876;10.642;2023-04-08T04:27:16;6.70;99.90
39899;DHT22;25571;47.876;10.642;2023-04-08T04:29:42;6.80;99.90
39899;DHT22;25571;47.876;10.642;2023-04-08T04:32:08;6.80;99.90
39899;DHT22;25571;47.876;10.642;2023-04-08T04:34:34;6.70;99.90
39899;DHT22;25571;47.876;10.642;2023-04-08T04:37:00;6.80;99.90
39899;DHT22;25571;47.876;10.642;2023-04-08T04:39:25;6.70;99.90
39899;DHT22;25571;47.876;10.642;2023-04-08T04:41:51;6.80;99.90
39899;DHT22;25571;47.876;10.642;2023-04-08T04:44:17;6.80;99.90
39899;DHT22;25571;47.876;10.642;2023-04-08T04:46:42;6.90;99.90
39899;DHT22;25571;47.876;10.642;2023-04-08T04:49:08;6.80;99.90
39899;DHT22;25571;47.876;10.642;2023-04-08T04:51:34;6.80;99.90
39899;DHT22;25571;47.876;10.642;2023-04-08T04:53:59;6.80;99.90
39899;DHT22;25571;47.876;10.642;2023-04-08T04:56:25;6.80;99.90
39899;DHT22;25571;47.876;10.642;2023-04-08T04:58:51;7.10;99.90
39899;DHT22;25571;47.876;10.642;2023-04-08T05:01:17;6.80;99.90
39899;DHT22;25571;47.876;10.642;2023-04-08T05:03:42;6.80;99.90
39899;DHT22;25571;47.876;10.642;2023-04-08T05:06:08;6.80;99.90
39899;DHT22;25571;47.876;10.642;2023-04-08T05:08:34;6.80;99.90
39899;DHT22;25571;47.876;10.642;2023-04-08T05:10:59;6.80;99.90
39899;DHT22;25571;47.876;10.642;2023-04-08T05:13:27;6.80;99.90
39899;DHT22;25571;47.876;10.642;2023-04-08T05:15:53;6.90;99.90
39899;DHT22;25571;47.876;10.642;2023-04-08T05:18:19;6.90;99.90
39899;DHT22;25571;47.876;10.642;2023-04-08T05:20:45;6.90;99.90
39899;DHT22;25571;47.876;10.642;2023-04-08T05:23:11;6.90;99.90
39899;DHT22;25571;47.876;10.642;2023-04-08T05:25:36;7.00;99.90
39899;DHT22;25571;47.876;10.642;2023-04-08T05:28:02;6.90;99.90
39899;DHT22;25571;47.876;10.642;2023-04-08T05:30:28;6.90;99.90
39899;DHT22;25571;47.876;10.642;2023-04-08T05:32:54;6.90;99.90
39899;DHT22;25571;47.876;10.642;2023-04-08T05:35:19;6.90;99.90
39899;DHT22;25571;47.876;10.642;2023-04-08T05:37:45;6.90;99.90
39899;DHT22;25571;47.876;10.642;2023-04-08T05:40:11;7.20;99.90
39899;DHT22;25571;47.876;10.642;2023-04-08T05:42:36;6.90;99.90
39899;DHT22;25571;47.876;10.642;2023-04-08T05:45:02;7.00;99.90
39899;DHT22;25571;47.876;10.642;2023-04-08T05:47:28;6.90;99.90
39899;DHT22;25571;47.876;10.642;2023-04-08T05:49:54;6.90;99.90
39899;DHT22;25571;47.876;10.642;2023-04-08T05:52:19;6.80;99.90
39899;DHT22;25571;47.876;10.642;2023-04-08T05:54:45;6.90;99.90
39899;DHT22;25571;47.876;10.642;2023-04-08T05:57:11;7.00;99.90
39899;DHT22;25571;47.876;10.642;2023-04-08T05:59:37;6.90;99.90
39899;DHT22;25571;47.876;10.642;2023-04-08T06:02:03;6.90;99.90
39899;DHT22;25571;47.876;10.642;2023-04-08T06:04:28;7.00;99.90
39899;DHT22;25571;47.876;10.642;2023-04-08T06:06:54;7.10;99.90
39899;DHT22;25571;47.876;10.642;2023-04-08T06:09:24;7.00;99.90
39899;DHT22;25571;47.876;10.642;2023-04-08T06:11:50;7.10;99.90
39899;DHT22;25571;47.876;10.642;2023-04-08T06:14:16;7.10;99.90
39899;DHT22;25571;47.876;10.642;2023-04-08T06:16:42;7.10;99.90
39899;DHT22;25571;47.876;10.642;2023-04-08T06:19:07;7.00;99.90
39899;DHT22;25571;47.876;10.642;2023-04-08T06:21:33;7.20;99.90
39899;DHT22;25571;47.876;10.642;2023-04-08T06:23:58;7.20;99.90
39899;DHT22;25571;47.876;10.642;2023-04-08T06:26:24;7.20;99.90
39899;DHT22;25571;47.876;10.642;2023-04-08T06:28:50;7.20;99.90
39899;DHT22;25571;47.876;10.642;2023-04-08T06:31:16;7.30;99.90
39899;DHT22;25571;47.876;10.642;2023-04-08T06:33:42;7.30;99.90
39899;DHT22;25571;47.876;10.642;2023-04-08T06:36:08;7.40;99.90
39899;DHT22;25571;47.876;10.642;2023-04-08T06:38:33;7.40;99.90
39899;DHT22;25571;47.876;10.642;2023-04-08T06:41:06;7.40;99.90
39899;DHT22;25571;47.876;10.642;2023-04-08T06:43:33;7.40;99.90
39899;DHT22;25571;47.876;10.642;2023-04-08T06:45:58;7.50;99.90
39899;DHT22;25571;47.876;10.642;2023-04-08T06:48:24;7.40;99.90
39899;DHT22;25571;47.876;10.642;2023-04-08T06:50:59;7.70;99.90
39899;DHT22;25571;47.876;10.642;2023-04-08T06:53:25;7.50;99.90
39899;DHT22;25571;47.876;10.642;2023-04-08T06:55:51;7.60;99.90
39899;DHT22;25571;47.876;10.642;2023-04-08T06:58:17;7.60;99.90
39899;DHT22;25571;47.876;10.642;2023-04-08T07:00:43;7.60;99.90
39899;DHT22;25571;47.876;10.642;2023-04-08T07:03:08;7.50;99.90
39899;DHT22;25571;47.876;10.642;2023-04-08T07:05:36;7.70;99.90
39899;DHT22;25571;47.876;10.642;2023-04-08T07:08:02;7.70;99.90
39899;DHT22;25571;47.876;10.642;2023-04-08T07:10:27;7.70;99.90
39899;DHT22;25571;47.876;10.642;2023-04-08T07:12:53;7.70;99.90
39899;DHT22;25571;47.876;10.642;2023-04-08T07:15:19;7.60;99.90
39899;DHT22;25571;47.876;10.642;2023-04-08T07:17:45;7.60;99.90
39899;DHT22;25571;47.876;10.642;2023-04-08T07:20:12;7.60;99.90
39899;DHT22;25571;47.876;10.642;2023-04-08T07:22:38;7.60;99.90
39899;DHT22;25571;47.876;10.642;2023-04-08T07:25:04;7.60;99.90
39899;DHT22;25571;47.876;10.642;2023-04-08T07:27:32;7.60;99.90
39899;DHT22;25571;47.876;10.642;2023-04-08T07:29:57;7.60;99.90
39899;DHT22;25571;47.876;10.642;2023-04-08T07:32:23;7.70;99.90
39899;DHT22;25571;47.876;10.642;2023-04-08T07:34:48;7.60;99.90
39899;DHT22;25571;47.876;10.642;2023-04-08T07:37:14;7.60;99.90
39899;DHT22;25571;47.876;10.642;2023-04-08T07:39:40;7.60;99.90
39899;DHT22;25571;47.876;10.642;2023-04-08T07:42:06;7.60;99.90
39899;DHT22;25571;47.876;10.642;2023-04-08T07:44:31;7.70;99.90
39899;DHT22;25571;47.876;10.642;2023-04-08T07:46:57;7.80;99.90
39899;DHT22;25571;47.876;10.642;2023-04-08T07:49:22;7.80;99.90
39899;DHT22;25571;47.876;10.642;2023-04-08T07:51:48;7.80;99.90
39899;DHT22;25571;47.876;10.642;2023-04-08T07:54:13;7.80;99.90
39899;DHT22;25571;47.876;10.642;2023-04-08T07:56:42;7.90;99.90
39899;DHT22;25571;47.876;10.642;2023-04-08T07:59:12;8.40;99.90
39899;DHT22;25571;47.876;10.642;2023-04-08T08:01:37;8.10;99.90
39899;DHT22;25571;47.876;10.642;2023-04-08T08:04:03;8.20;99.90
39899;DHT22;25571;47.876;10.642;2023-04-08T08:06:29;8.30;99.90
39899;DHT22;25571;47.876;10.642;2023-04-08T08:08:58;8.40;99.90
39899;DHT22;25571;47.876;10.642;2023-04-08T08:11:24;8.10;99.90
39899;DHT22;25571;47.876;10.642;2023-04-08T08:13:51;8.00;99.90
39899;DHT22;25571;47.876;10.642;2023-04-08T08:16:16;8.10;99.90
39899;DHT22;25571;47.876;10.642;2023-04-08T08:18:42;8.10;99.90
39899;DHT22;25571;47.876;10.642;2023-04-08T08:21:08;8.00;99.90
39899;DHT22;25571;47.876;10.642;2023-04-08T08:23:34;8.10;99.90
39899;DHT22;25571;47.876;10.642;2023-04-08T08:26:01;7.90;99.90
39899;DHT22;25571;47.876;10.642;2023-04-08T08:28:27;8.00;99.90
39899;DHT22;25571;47.876;10.642;2023-04-08T08:30:53;8.00;99.90
39899;DHT22;25571;47.876;10.642;2023-04-08T08:33:19;8.00;99.90
39899;DHT22;25571;47.876;10.642;2023-04-08T08:35:44;8.40;99.90
39899;DHT22;25571;47.876;10.642;2023-04-08T08:38:11;8.10;99.90
39899;DHT22;25571;47.876;10.642;2023-04-08T08:40:38;8.30;99.90
39899;DHT22;25571;47.876;10.642;2023-04-08T08:43:03;8.50;99.90
39899;DHT22;25571;47.876;10.642;2023-04-08T08:45:29;8.40;99.90
39899;DHT22;25571;47.876;10.642;2023-04-08T08:47:55;8.40;99.90
39899;DHT22;25571;47.876;10.642;2023-04-08T08:50:22;8.30;99.90
39899;DHT22;25571;47.876;10.642;2023-04-08T08:52:49;8.70;99.90
39899;DHT22;25571;47.876;10.642;2023-04-08T08:55:20;8.40;99.90
39899;DHT22;25571;47.876;10.642;2023-04-08T08:57:49;8.50;99.90
39899;DHT22;25571;47.876;10.642;2023-04-08T09:00:16;8.50;99.90
39899;DHT22;25571;47.876;10.642;2023-04-08T09:02:42;8.50;99.90
39899;DHT22;25571;47.876;10.642;2023-04-08T09:05:08;8.50;99.90
39899;DHT22;25571;47.876;10.642;2023-04-08T09:07:37;8.50;99.90
39899;DHT22;25571;47.876;10.642;2023-04-08T09:10:06;8.50;99.90
39899;DHT22;25571;47.876;10.642;2023-04-08T09:12:32;8.50;99.90
39899;DHT22;25571;47.876;10.642;2023-04-08T09:15:08;8.40;99.90
39899;DHT22;25571;47.876;10.642;2023-04-08T09:17:36;8.40;99.90
39899;DHT22;25571;47.876;10.642;2023-04-08T09:20:07;8.30;99.90
39899;DHT22;25571;47.876;10.642;2023-04-08T09:22:56;8.40;99.90
39899;DHT22;25571;47.876;10.642;2023-04-08T09:25:27;8.50;99.90
39899;DHT22;25571;47.876;10.642;2023-04-08T09:27:53;8.20;99.90
39899;DHT22;25571;47.876;10.642;2023-04-08T09:30:21;8.20;99.90
39899;DHT22;25571;47.876;10.642;2023-04-08T09:32:51;8.10;99.90
39899;DHT22;25571;47.876;10.642;2023-04-08T09:35:18;8.20;99.90
39899;DHT22;25571;47.876;10.642;2023-04-08T09:37:43;8.10;99.90
39899;DHT22;25571;47.876;10.642;2023-04-08T09:40:10;8.00;99.90
39899;DHT22;25571;47.876;10.642;2023-04-08T09:42:39;8.10;99.90
39899;DHT22;25571;47.876;10.642;2023-04-08T09:45:05;8.50;99.90
39899;DHT22;25571;47.876;10.642;2023-04-08T09:47:54;8.10;99.90
39899;DHT22;25571;47.876;10.642;2023-04-08T09:50:25;7.90;99.90
39899;DHT22;25571;47.876;10.642;2023-04-08T09:52:55;7.80;99.90
39899;DHT22;25571;47.876;10.642;2023-04-08T09:55:22;7.60;99.90
39899;DHT22;25571;47.876;10.642;2023-04-08T09:58:01;7.50;99.90
39899;DHT22;25571;47.876;10.642;2023-04-08T10:00:39;7.50;99.90
39899;DHT22;25571;47.876;10.642;2023-04-08T10:03:13;7.20;99.90
39899;DHT22;25571;47.876;10.642;2023-04-08T10:05:45;7.30;99.90
39899;DHT22;25571;47.876;10.642;2023-04-08T10:08:12;7.60;99.90
39899;DHT22;25571;47.876;10.642;2023-04-08T10:10:38;7.30;99.90
39899;DHT22;25571;47.876;10.642;2023-04-08T10:13:06;7.40;99.90
39899;DHT22;25571;47.876;10.642;2023-04-08T10:15:33;7.40;99.90
39899;DHT22;25571;47.876;10.642;2023-04-08T10:23:03;7.50;99.90
39899;DHT22;25571;47.876;10.642;2023-04-08T10:25:36;7.70;99.90
39899;DHT22;25571;47.876;10.642;2023-04-08T10:28:22;7.60;99.90
39899;DHT22;25571;47.876;10.642;2023-04-08T10:30:49;7.60;99.90
39899;DHT22;25571;47.876;10.642;2023-04-08T10:33:17;7.60;99.90
39899;DHT22;25571;47.876;10.642;2023-04-08T10:38:13;7.60;99.90
39899;DHT22;25571;47.876;10.642;2023-04-08T10:40:39;7.70;99.90
39899;DHT22;25571;47.876;10.642;2023-04-08T10:43:09;7.60;99.90
39899;DHT22;25571;47.876;10.642;2023-04-08T10:45:38;7.70;99.90
39899;DHT22;25571;47.876;10.642;2023-04-08T10:51:03;7.50;99.90
39899;DHT22;25571;47.876;10.642;2023-04-08T10:53:38;7.60;99.90
39899;DHT22;25571;47.876;10.642;2023-04-08T10:56:12;7.60;99.90
39899;DHT22;25571;47.876;10.642;2023-04-08T10:58:50;7.70;99.90
39899;DHT22;25571;47.876;10.642;2023-04-08T11:01:16;7.70;99.90
39899;DHT22;25571;47.876;10.642;2023-04-08T11:03:42;7.70;99.90
39899;DHT22;25571;47.876;10.642;2023-04-08T11:06:08;7.70;99.90
39899;DHT22;25571;47.876;10.642;2023-04-08T11:08:35;7.70;99.90
39899;DHT22;25571;47.876;10.642;2023-04-08T11:11:01;7.60;99.90
39899;DHT22;25571;47.876;10.642;2023-04-08T11:13:28;7.60;99.90
39899;DHT22;25571;47.876;10.642;2023-04-08T11:15:55;7.50;99.90
39899;DHT22;25571;47.876;10.642;2023-04-08T11:18:22;7.50;99.90
39899;DHT22;25571;47.876;10.642;2023-04-08T11:20:52;7.50;99.90
39899;DHT22;25571;47.876;10.642;2023-04-08T11:23:18;7.50;99.90
39899;DHT22;25571;47.876;10.642;2023-04-08T11:25:45;7.50;99.90
39899;DHT22;25571;47.876;10.642;2023-04-08T11:28:11;7.50;99.90
39899;DHT22;25571;47.876;10.642;2023-04-08T11:30:39;7.50;99.90
39899;DHT22;25571;47.876;10.642;2023-04-08T11:33:06;7.60;99.90
39899;DHT22;25571;47.876;10.642;2023-04-08T11:35:32;7.50;99.90
39899;DHT22;25571;47.876;10.642;2023-04-08T11:37:58;7.40;99.90
39899;DHT22;25571;47.876;10.642;2023-04-08T11:40:24;7.40;99.90
39899;DHT22;25571;47.876;10.642;2023-04-08T11:42:51;7.50;99.90
39899;DHT22;25571;47.876;10.642;2023-04-08T11:45:20;7.50;99.90
39899;DHT22;25571;47.876;10.642;2023-04-08T11:47:46;7.40;99.90
39899;DHT22;25571;47.876;10.642;2023-04-08T11:50:25;7.50;99.90
39899;DHT22;25571;47.876;10.642;2023-04-08T11:52:51;7.40;99.90
39899;DHT22;25571;47.876;10.642;2023-04-08T11:55:23;7.40;99.90
39899;DHT22;25571;47.876;10.642;2023-04-08T11:57:49;7.50;99.90
39899;DHT22;25571;47.876;10.642;2023-04-08T12:00:16;7.50;99.90
39899;DHT22;25571;47.876;10.642;2023-04-08T12:02:42;7.60;99.90
39899;DHT22;25571;47.876;10.642;2023-04-08T12:05:08;7.70;99.90
39899;DHT22;25571;47.876;10.642;2023-04-08T12:07:33;7.70;99.90
39899;DHT22;25571;47.876;10.642;2023-04-08T12:09:59;7.70;99.90
39899;DHT22;25571;47.876;10.642;2023-04-08T12:12:25;7.70;99.90
39899;DHT22;25571;47.876;10.642;2023-04-08T12:14:51;7.80;99.90
39899;DHT22;25571;47.876;10.642;2023-04-08T12:17:17;7.90;99.90
39899;DHT22;25571;47.876;10.642;2023-04-08T12:19:43;7.90;99.90
39899;DHT22;25571;47.876;10.642;2023-04-08T12:22:09;7.90;99.90
39899;DHT22;25571;47.876;10.642;2023-04-08T12:24:34;8.10;99.90
39899;DHT22;25571;47.876;10.642;2023-04-08T12:27:00;8.50;99.90
39899;DHT22;25571;47.876;10.642;2023-04-08T12:29:27;8.40;99.90
39899;DHT22;25571;47.876;10.642;2023-04-08T12:31:53;8.70;99.90
39899;DHT22;25571;47.876;10.642;2023-04-08T12:34:19;8.90;99.90
39899;DHT22;25571;47.876;10.642;2023-04-08T12:36:44;9.00;99.90
39899;DHT22;25571;47.876;10.642;2023-04-08T12:39:10;9.50;99.90
39899;DHT22;25571;47.876;10.642;2023-04-08T12:41:36;9.20;99.90
39899;DHT22;25571;47.876;10.642;2023-04-08T12:44:01;9.20;99.90
39899;DHT22;25571;47.876;10.642;2023-04-08T12:46:27;9.10;99.90
39899;DHT22;25571;47.876;10.642;2023-04-08T12:48:53;9.30;99.90
39899;DHT22;25571;47.876;10.642;2023-04-08T12:51:18;9.30;99.90
39899;DHT22;25571;47.876;10.642;2023-04-08T12:53:44;9.30;99.90
39899;DHT22;25571;47.876;10.642;2023-04-08T12:56:10;9.30;99.90
39899;DHT22;25571;47.876;10.642;2023-04-08T12:58:35;9.40;99.90
39899;DHT22;25571;47.876;10.642;2023-04-08T13:01:01;9.40;99.90
39899;DHT22;25571;47.876;10.642;2023-04-08T13:03:27;9.30;99.90
39899;DHT22;25571;47.876;10.642;2023-04-08T13:05:55;9.50;99.90
39899;DHT22;25571;47.876;10.642;2023-04-08T13:08:21;9.40;99.90
39899;DHT22;25571;47.876;10.642;2023-04-08T13:10:47;9.20;99.90
39899;DHT22;25571;47.876;10.642;2023-04-08T13:13:13;9.20;99.90
39899;DHT22;25571;47.876;10.642;2023-04-08T13:15:39;9.00;99.90
39899;DHT22;25571;47.876;10.642;2023-04-08T13:18:04;9.00;99.90
39899;DHT22;25571;47.876;10.642;2023-04-08T13:20:30;9.10;99.90
39899;DHT22;25571;47.876;10.642;2023-04-08T13:22:56;9.30;99.90
39899;DHT22;25571;47.876;10.642;2023-04-08T13:25:21;9.20;99.90
39899;DHT22;25571;47.876;10.642;2023-04-08T13:27:47;9.30;99.90
39899;DHT22;25571;47.876;10.642;2023-04-08T13:30:13;8.90;99.90
39899;DHT22;25571;47.876;10.642;2023-04-08T13:32:38;9.10;99.90
39899;DHT22;25571;47.876;10.642;2023-04-08T13:35:04;8.80;99.90
39899;DHT22;25571;47.876;10.642;2023-04-08T13:37:30;8.70;99.90
39899;DHT22;25571;47.876;10.642;2023-04-08T13:39:55;8.60;99.90
39899;DHT22;25571;47.876;10.642;2023-04-08T13:42:22;8.70;99.90
39899;DHT22;25571;47.876;10.642;2023-04-08T13:44:48;8.50;99.90
39899;DHT22;25571;47.876;10.642;2023-04-08T13:47:13;8.50;99.90
39899;DHT22;25571;47.876;10.642;2023-04-08T13:49:39;8.50;99.90
39899;DHT22;25571;47.876;10.642;2023-04-08T13:52:05;8.50;99.90
39899;DHT22;25571;47.876;10.642;2023-04-08T13:54:31;8.50;99.90
39899;DHT22;25571;47.876;10.642;2023-04-08T13:56:57;8.50;99.90
39899;DHT22;25571;47.876;10.642;2023-04-08T13:59:23;8.50;99.90
39899;DHT22;25571;47.876;10.642;2023-04-08T14:01:48;8.50;99.90
39899;DHT22;25571;47.876;10.642;2023-04-08T14:04:18;8.30;99.90
39899;DHT22;25571;47.876;10.642;2023-04-08T14:06:45;8.40;99.90
39899;DHT22;25571;47.876;10.642;2023-04-08T14:09:10;8.40;99.90
39899;DHT22;25571;47.876;10.642;2023-04-08T14:11:36;8.40;99.90
39899;DHT22;25571;47.876;10.642;2023-04-08T14:14:02;8.40;99.90
39899;DHT22;25571;47.876;10.642;2023-04-08T14:16:28;8.70;99.90
39899;DHT22;25571;47.876;10.642;2023-04-08T14:18:55;8.40;99.90
39899;DHT22;25571;47.876;10.642;2023-04-08T14:21:22;8.40;99.90
39899;DHT22;25571;47.876;10.642;2023-04-08T14:23:48;8.40;99.90
39899;DHT22;25571;47.876;10.642;2023-04-08T14:26:13;8.70;99.90
39899;DHT22;25571;47.876;10.642;2023-04-08T14:28:39;8.40;99.90
39899;DHT22;25571;47.876;10.642;2023-04-08T14:31:05;8.40;99.90
39899;DHT22;25571;47.876;10.642;2023-04-08T14:33:31;8.30;99.90
39899;DHT22;25571;47.876;10.642;2023-04-08T14:35:56;8.40;99.90
39899;DHT22;25571;47.876;10.642;2023-04-08T14:38:23;8.40;99.90
39899;DHT22;25571;47.876;10.642;2023-04-08T14:40:49;8.20;99.90
39899;DHT22;25571;47.876;10.642;2023-04-08T14:43:15;8.20;99.90
39899;DHT22;25571;47.876;10.642;2023-04-08T14:45:40;8.20;99.90
39899;DHT22;25571;47.876;10.642;2023-04-08T14:48:06;8.20;99.90
39899;DHT22;25571;47.876;10.642;2023-04-08T14:50:32;8.10;99.90
39899;DHT22;25571;47.876;10.642;2023-04-08T14:52:58;8.10;99.90
39899;DHT22;25571;47.876;10.642;2023-04-08T14:55:23;8.00;99.90
39899;DHT22;25571;47.876;10.642;2023-04-08T14:57:50;8.00;99.90
39899;DHT22;25571;47.876;10.642;2023-04-08T15:00:15;8.00;99.90
39899;DHT22;25571;47.876;10.642;2023-04-08T15:02:41;8.00;99.90
39899;DHT22;25571;47.876;10.642;2023-04-08T15:05:07;7.90;99.90
39899;DHT22;25571;47.876;10.642;2023-04-08T15:07:33;7.90;99.90
39899;DHT22;25571;47.876;10.642;2023-04-08T15:09:58;7.80;99.90
39899;DHT22;25571;47.876;10.642;2023-04-08T15:12:24;7.50;99.90
39899;DHT22;25571;47.876;10.642;2023-04-08T15:14:50;7.30;99.90
39899;DHT22;25571;47.876;10.642;2023-04-08T15:17:15;7.20;99.90
39899;DHT22;25571;47.876;10.642;2023-04-08T15:19:41;7.10;99.90
39899;DHT22;25571;47.876;10.642;2023-04-08T15:22:07;7.00;99.90
39899;DHT22;25571;47.876;10.642;2023-04-08T15:24:32;7.00;99.90
39899;DHT22;25571;47.876;10.642;2023-04-08T15:26:58;6.90;99.90
39899;DHT22;25571;47.876;10.642;2023-04-08T15:29:24;6.80;99.90
39899;DHT22;25571;47.876;10.642;2023-04-08T15:31:50;6.80;99.90
39899;DHT22;25571;47.876;10.642;2023-04-08T15:34:17;6.70;99.90
39899;DHT22;25571;47.876;10.642;2023-04-08T15:36:43;6.80;99.90
39899;DHT22;25571;47.876;10.642;2023-04-08T15:39:09;6.70;99.90
39899;DHT22;25571;47.876;10.642;2023-04-08T15:41:35;6.70;99.90